Terminal Aerodrome Forecast
Issued by NWS

Home | Current Version | Previous Version | Text Only | Print | Product List | Glossary On
Versions: 1 2 3 4 5 6 7 8 9 10 11 12 13 14 15
000
FTUS46 KEKA 272023 AAA
TAFUKI
TAF AMD
KUKI 272023Z 2720/2818 31012G19KT P6SM SCT020 SCT030 BKN050
      TEMPO 2721/2801 BKN030
     FM280700 33003KT P6SM FEW025 BKN050 BKN100=

USA.gov is the U.S. government's official web portal to all federal, state and local government web resources and services.